Time;durP1;ratioP1;P1;durP2;ratioP2;P2;SDS_P1;SDS_P2;PMS_P1;PMS_P2;Temp;Humidity;BMP_temperature;BMP_pressure;BME280_temperature;BME280_humidity;BME280_pressure;Samples;Min_cycle;Max_cycle;Signal;HPM_P1;HPM_P2
2023/12/29 00:00:33;;;;;;;31.15;16.63;;;7.30;99.90;;;;;;5068287;28;20690;-57
2023/12/29 00:02:59;;;;;;;28.23;15.82;;;7.30;99.90;;;;;;5068443;28;20108;-57
2023/12/29 00:05:24;;;;;;;33.65;17.35;;;7.20;99.90;;;;;;5068083;28;20024;-56
2023/12/29 00:07:50;;;;;;;34.28;17.25;;;7.30;99.90;;;;;;5068153;28;20047;-55
2023/12/29 00:10:16;;;;;;;31.88;17.67;;;7.30;99.90;;;;;;5068237;28;20035;-56
2023/12/29 00:12:42;;;;;;;32.45;17.38;;;7.30;99.90;;;;;;5067883;28;20058;-55
2023/12/29 00:15:08;;;;;;;35.13;18.13;;;7.30;99.90;;;;;;5067744;28;20121;-55
2023/12/29 00:17:37;;;;;;;31.98;15.98;;;7.30;99.90;;;;;;5068308;28;20028;-55
2023/12/29 00:20:04;;;;;;;33.00;17.73;;;7.30;99.90;;;;;;5068311;28;20043;-54
2023/12/29 00:22:29;;;;;;;;;;;7.30;99.90;;;;;;5067886;28;20064;-55
2023/12/29 00:24:55;;;;;;;32.85;15.50;;;7.30;99.90;;;;;;5067902;28;20306;-56
2023/12/29 00:27:21;;;;;;;31.13;15.55;;;7.30;99.90;;;;;;5068189;28;20052;-56
2023/12/29 00:29:46;;;;;;;32.08;15.82;;;7.30;99.90;;;;;;5067794;28;20111;-55
2023/12/29 00:32:12;;;;;;;27.50;14.75;;;7.40;99.90;;;;;;5068316;28;20365;-55
2023/12/29 00:34:38;;;;;;;26.67;13.75;;;7.40;99.90;;;;;;5068037;28;20063;-55
2023/12/29 15:25:37;;;;;;;22.35;11.27;;;8.50;99.90;;;;;;5062709;28;20479;-53
2023/12/29 15:28:03;;;;;;;25.88;10.85;;;8.50;99.90;;;;;;5063640;28;20056;-55
2023/12/29 15:30:29;;;;;;;22.38;11.10;;;8.60;99.90;;;;;;5062595;28;20024;-57
2023/12/29 15:32:54;;;;;;;27.42;12.27;;;8.60;99.90;;;;;;5061567;28;20025;-55
2023/12/29 15:35:20;;;;;;;25.02;11.45;;;8.50;99.90;;;;;;5061012;28;20031;-56
2023/12/29 15:37:46;;;;;;;23.08;10.27;;;8.60;99.90;;;;;;5042983;28;20025;-57
2023/12/29 15:40:11;;;;;;;23.70;11.43;;;8.60;99.90;;;;;;5043386;28;20074;-58
2023/12/29 15:42:37;;;;;;;22.20;11.07;;;8.60;99.90;;;;;;5041634;28;20124;-55
2023/12/29 15:45:03;;;;;;;22.73;11.60;;;8.60;99.90;;;;;;5051466;28;20757;-55
2023/12/29 15:47:28;;;;;;;18.95;10.07;;;8.60;99.90;;;;;;5062300;28;20028;-56
2023/12/29 15:49:54;;;;;;;22.75;11.82;;;8.60;99.90;;;;;;5062323;28;20123;-55
2023/12/29 15:52:20;;;;;;;25.60;12.73;;;8.60;99.90;;;;;;5062465;28;20029;-58
2023/12/29 15:54:45;;;;;;;20.73;10.52;;;8.50;99.90;;;;;;5041950;28;20077;-54
2023/12/29 15:57:11;;;;;;;22.83;10.88;;;8.50;99.90;;;;;;5022455;28;20026;-56
2023/12/29 15:59:37;;;;;;;23.98;11.88;;;8.60;99.90;;;;;;5022333;28;20036;-55
2023/12/29 16:02:03;;;;;;;21.38;10.30;;;8.60;99.90;;;;;;5033236;28;20031;-54
2023/12/29 16:04:29;;;;;;;18.40;8.50;;;8.60;99.90;;;;;;5050792;28;20036;-54
2023/12/29 16:06:56;;;;;;;16.80;8.88;;;8.50;99.90;;;;;;5046611;28;20032;-55
2023/12/29 16:09:22;;;;;;;19.13;9.00;;;8.60;99.90;;;;;;5042269;28;20041;-54
2023/12/29 16:11:54;;;;;;;20.58;9.73;;;8.60;99.90;;;;;;5049097;28;20060;-56
2023/12/29 16:14:21;;;;;;;17.27;8.13;;;8.60;99.90;;;;;;5048921;28;20029;-54
2023/12/29 16:16:47;;;;;;;22.23;8.95;;;8.60;99.90;;;;;;5052006;28;20366;-55
2023/12/29 16:19:12;;;;;;;20.75;8.55;;;8.60;99.90;;;;;;5053305;28;20033;-58
2023/12/29 16:21:39;;;;;;;16.60;8.38;;;8.60;99.90;;;;;;5048302;28;20025;-52
2023/12/29 16:24:09;;;;;;;14.85;7.65;;;8.60;99.90;;;;;;5060548;28;20056;-53
2023/12/29 16:26:36;;;;;;;18.17;7.60;;;8.60;99.90;;;;;;5044293;28;20033;-56
2023/12/29 16:29:03;;;;;;;;;;;8.60;99.90;;;;;;5047285;28;20510;-56
2023/12/29 16:31:28;;;;;;;13.27;7.55;;;8.50;99.90;;;;;;5052260;28;19983;-54
2023/12/29 16:33:54;;;;;;;15.25;8.15;;;8.50;99.90;;;;;;5050717;28;20029;-56
2023/12/29 16:36:19;;;;;;;15.80;8.18;;;8.50;99.90;;;;;;5041720;28;20131;-56
2023/12/29 16:38:47;;;;;;;16.77;6.75;;;8.70;99.90;;;;;;5039466;28;20114;-57
2023/12/29 16:41:13;;;;;;;17.40;8.55;;;8.60;99.90;;;;;;5038570;28;20028;-58
2023/12/29 16:43:39;;;;;;;19.85;9.18;;;8.70;99.90;;;;;;5032897;28;20080;-54
2023/12/29 16:46:05;;;;;;;20.58;10.27;;;8.60;99.90;;;;;;5034883;28;20145;-57
2023/12/29 16:48:31;;;;;;;19.48;9.85;;;8.60;99.90;;;;;;5037894;28;20589;-57
2023/12/29 16:50:56;;;;;;;18.10;9.35;;;8.60;99.90;;;;;;5039418;28;20725;-54
2023/12/29 16:53:22;;;;;;;18.98;8.70;;;8.50;99.90;;;;;;5033952;28;20021;-57
2023/12/29 16:55:49;;;;;;;17.50;8.77;;;8.60;99.90;;;;;;5027106;28;20032;-58
2023/12/29 16:58:19;;;;;;;20.13;9.60;;;8.50;99.90;;;;;;5030397;28;20455;-61
2023/12/29 17:00:46;;;;;;;21.40;10.82;;;8.60;99.90;;;;;;5046698;28;20033;-55
2023/12/29 17:03:12;;;;;;;20.05;10.05;;;8.60;99.90;;;;;;5048477;28;20289;-57
2023/12/29 17:05:37;;;;;;;19.08;9.80;;;8.50;99.90;;;;;;5048841;28;20037;-56
2023/12/29 17:08:03;;;;;;;20.38;9.55;;;8.50;99.90;;;;;;5048850;28;20052;-54
2023/12/29 17:10:29;;;;;;;20.65;9.63;;;8.50;99.90;;;;;;5048891;28;20108;-56
2023/12/29 17:12:54;;;;;;;15.45;9.13;;;8.50;99.90;;;;;;5048372;28;20208;-53
2023/12/29 17:15:21;;;;;;;19.30;9.52;;;8.60;99.90;;;;;;5046860;28;20825;-55
2023/12/29 17:17:47;;;;;;;17.10;8.52;;;8.60;99.90;;;;;;5033711;28;20440;-54
2023/12/29 17:20:12;;;;;;;18.40;8.20;;;8.60;99.90;;;;;;5029966;28;20184;-54
2023/12/29 17:22:38;;;;;;;16.63;8.57;;;8.60;99.90;;;;;;5031653;28;20464;-55
2023/12/29 17:25:04;;;;;;;18.05;8.15;;;8.60;99.90;;;;;;5036843;28;20369;-55
2023/12/29 17:27:30;;;;;;;20.17;9.30;;;8.60;99.90;;;;;;5047061;28;20102;-56
2023/12/29 17:29:56;;;;;;;24.05;10.02;;;8.70;99.90;;;;;;5049099;28;20029;-57
2023/12/29 17:32:23;;;;;;;21.95;10.10;;;8.70;99.90;;;;;;5047937;28;20112;-52
2023/12/29 17:34:49;;;;;;;21.35;10.68;;;8.70;99.90;;;;;;5033612;28;20041;-54
2023/12/29 17:37:15;;;;;;;25.52;13.00;;;8.60;99.90;;;;;;5028011;28;20392;-56
2023/12/29 17:39:41;;;;;;;25.88;12.13;;;8.50;99.90;;;;;;5028477;28;21043;-54
2023/12/29 17:42:10;;;;;;;26.27;11.65;;;8.60;99.90;;;;;;5047489;28;20040;-55
2023/12/29 17:44:39;;;;;;;21.02;10.10;;;8.60;99.90;;;;;;5046794;28;20083;-57
2023/12/29 17:47:05;;;;;;;23.98;10.52;;;8.60;99.90;;;;;;5043038;28;20564;-54
2023/12/29 17:49:31;;;;;;;23.15;10.48;;;8.60;99.90;;;;;;5037517;28;20029;-57
2023/12/29 17:51:58;;;;;;;24.10;10.93;;;8.60;99.90;;;;;;5036987;28;20499;-54
2023/12/29 17:54:24;;;;;;;;;;;8.60;99.90;;;;;;5036380;28;20585;-54
2023/12/29 17:56:50;;;;;;;21.65;10.75;;;8.50;99.90;;;;;;5038001;28;19905;-56
2023/12/29 17:59:16;;;;;;;25.50;11.00;;;8.50;99.90;;;;;;5037427;28;20029;-55
2023/12/29 18:01:41;;;;;;;30.00;11.88;;;8.60;99.90;;;;;;5037394;28;20028;-56
2023/12/29 18:04:07;;;;;;;20.98;10.95;;;8.60;99.90;;;;;;5037546;28;20123;-56
2023/12/29 18:06:33;;;;;;;23.70;11.45;;;8.50;99.90;;;;;;5037551;28;20528;-54
2023/12/29 18:09:01;;;;;;;28.13;12.48;;;8.60;99.90;;;;;;5036530;28;20144;-59
2023/12/29 18:11:30;;;;;;;20.70;10.52;;;8.50;99.90;;;;;;5033231;28;20025;-53
2023/12/29 18:13:57;;;;;;;17.80;9.13;;;8.60;99.90;;;;;;5035754;28;20025;-54
2023/12/29 18:16:22;;;;;;;15.75;7.80;;;8.60;99.90;;;;;;5035650;28;20037;-55
2023/12/29 18:18:49;;;;;;;19.23;10.00;;;8.60;99.90;;;;;;5037266;28;20029;-54
2023/12/29 18:21:17;;;;;;;18.87;9.37;;;8.60;99.90;;;;;;5036234;28;20022;-56
2023/12/29 18:23:44;;;;;;;22.17;9.43;;;8.60;99.90;;;;;;5036844;28;20060;-58
2023/12/29 18:26:11;;;;;;;20.00;9.38;;;8.60;99.90;;;;;;5037417;28;20494;-54
2023/12/29 18:28:42;;;;;;;21.90;9.85;;;8.60;99.90;;;;;;5037085;28;20029;-56
2023/12/29 18:31:11;;;;;;;21.08;9.57;;;8.60;99.90;;;;;;5037692;28;20721;-55
2023/12/29 18:33:38;;;;;;;20.85;10.93;;;8.60;99.90;;;;;;5038355;28;20023;-54
2023/12/29 18:36:05;;;;;;;20.00;9.70;;;8.60;99.90;;;;;;5038234;28;20075;-59
2023/12/29 18:38:30;;;;;;;20.52;9.93;;;8.60;99.90;;;;;;5037853;28;20484;-54
2023/12/29 18:40:56;;;;;;;19.98;10.20;;;8.60;99.90;;;;;;5036582;28;20083;-55
2023/12/29 18:43:22;;;;;;;18.33;9.75;;;8.70;99.90;;;;;;5036674;28;20258;-57
2023/12/29 18:45:49;;;;;;;17.20;10.27;;;8.70;99.90;;;;;;5037232;28;20139;-57
2023/12/29 18:48:15;;;;;;;20.50;10.73;;;8.60;99.90;;;;;;5035754;28;20518;-55
2023/12/29 18:50:41;;;;;;;21.42;10.20;;;8.70;99.90;;;;;;5036268;28;20033;-54
2023/12/29 18:53:07;;;;;;;21.67;10.38;;;8.60;99.90;;;;;;5036978;28;20036;-54
2023/12/29 18:55:33;;;;;;;23.52;10.50;;;8.60;99.90;;;;;;5037155;28;20028;-57
2023/12/29 18:57:59;;;;;;;24.27;10.38;;;8.70;99.90;;;;;;5039115;28;20472;-52
2023/12/29 19:00:24;;;;;;;24.88;11.48;;;8.70;99.90;;;;;;5037601;28;20044;-53
2023/12/29 19:02:50;;;;;;;23.95;11.00;;;8.70;99.90;;;;;;5036942;28;20539;-58
2023/12/29 19:05:15;;;;;;;24.45;11.70;;;8.70;99.90;;;;;;5035081;28;20546;-53
2023/12/29 19:07:41;;;;;;;24.67;10.93;;;8.70;99.90;;;;;;5035400;28;20037;-54
2023/12/29 19:10:09;;;;;;;20.55;9.35;;;8.80;99.90;;;;;;5035274;28;20026;-57
2023/12/29 19:12:35;;;;;;;21.63;10.00;;;8.90;99.90;;;;;;5033843;28;20037;-54
2023/12/29 19:15:00;;;;;;;21.85;10.00;;;8.90;99.90;;;;;;5039835;28;20529;-56
2023/12/29 19:17:27;;;;;;;22.27;10.40;;;8.90;99.90;;;;;;5044902;28;20025;-54
2023/12/29 19:19:54;;;;;;;21.00;9.45;;;8.80;99.90;;;;;;5044183;28;20422;-52
2023/12/29 19:22:20;;;;;;;18.00;8.23;;;8.80;99.90;;;;;;5033544;28;20118;-54
2023/12/29 19:24:48;;;;;;;15.85;9.10;;;8.90;99.90;;;;;;5033878;28;20061;-55
2023/12/29 19:27:14;;;;;;;20.20;9.00;;;8.90;99.90;;;;;;5035329;28;20044;-57
2023/12/29 19:29:43;;;;;;;15.82;8.73;;;8.80;99.90;;;;;;5034037;28;20021;-54
2023/12/29 19:32:08;;;;;;;16.30;8.73;;;8.80;99.90;;;;;;5034775;28;20021;-56
2023/12/29 19:34:35;;;;;;;20.88;9.63;;;8.70;99.90;;;;;;5035861;28;20391;-58
2023/12/29 19:37:01;;;;;;;18.70;9.02;;;8.70;99.90;;;;;;5034635;28;20021;-56
2023/12/29 19:39:26;;;;;;;22.15;10.57;;;8.70;99.90;;;;;;5035843;28;20116;-56
2023/12/29 19:41:53;;;;;;;26.52;12.25;;;8.60;99.90;;;;;;5036464;28;20103;-56
2023/12/29 19:44:19;;;;;;;22.70;10.97;;;8.60;99.90;;;;;;5034599;28;20068;-58
2023/12/29 19:46:45;;;;;;;27.35;12.80;;;8.70;99.90;;;;;;5035687;28;20049;-56
2023/12/29 19:49:11;;;;;;;26.15;11.90;;;8.70;99.90;;;;;;5036130;28;20026;-60
2023/12/29 19:51:37;;;;;;;26.17;12.37;;;8.70;99.90;;;;;;5034828;28;20092;-54
2023/12/29 19:54:02;;;;;;;22.42;10.35;;;8.80;99.90;;;;;;5036398;28;20606;-57
2023/12/29 19:56:29;;;;;;;20.05;9.80;;;8.80;99.90;;;;;;5036097;28;20018;-55
2023/12/29 19:58:55;;;;;;;22.83;10.52;;;8.90;99.90;;;;;;5037143;28;20036;-56
2023/12/29 20:01:22;;;;;;;31.98;14.43;;;8.90;99.90;;;;;;5032725;28;20106;-53
2023/12/29 20:03:48;;;;;;;26.80;12.07;;;8.80;99.90;;;;;;5032106;28;20488;-56
2023/12/29 20:06:19;;;;;;;29.23;13.40;;;8.90;99.90;;;;;;5035457;28;20029;-53
2023/12/29 20:08:46;;;;;;;37.03;14.50;;;9.00;99.90;;;;;;5036500;28;20384;-54
2023/12/29 20:11:11;;;;;;;36.70;12.90;;;9.00;99.90;;;;;;5036828;28;20103;-56
2023/12/29 20:13:37;;;;;;;31.20;11.65;;;9.00;99.90;;;;;;5039098;28;20080;-55
2023/12/29 20:16:03;;;;;;;22.60;9.43;;;9.10;99.90;;;;;;5040329;28;20506;-53
2023/12/29 20:18:28;;;;;;;20.63;8.75;;;9.20;99.90;;;;;;5038152;28;20037;-55
2023/12/29 20:20:54;;;;;;;24.73;9.80;;;9.30;99.90;;;;;;5039254;28;20083;-53
2023/12/29 20:23:20;;;;;;;25.63;10.70;;;9.20;99.90;;;;;;5039793;28;20439;-58
2023/12/29 20:25:49;;;;;;;23.88;9.55;;;9.30;99.90;;;;;;5038357;28;20292;-53
2023/12/29 20:28:15;;;;;;;20.90;8.35;;;9.30;99.90;;;;;;5040260;28;20021;-54
2023/12/29 20:30:41;;;;;;;19.67;8.23;;;9.30;99.90;;;;;;5040668;28;20025;-56
2023/12/29 20:33:07;;;;;;;23.45;9.85;;;9.20;99.90;;;;;;5038162;28;20045;-55
2023/12/29 20:35:33;;;;;;;21.65;9.95;;;9.10;99.90;;;;;;5039046;28;20500;-57
2023/12/29 20:38:00;;;;;;;19.45;8.95;;;9.00;99.90;;;;;;5039231;28;20219;-53
2023/12/29 20:40:26;;;;;;;18.58;8.95;;;9.00;99.90;;;;;;5037694;28;20099;-57
2023/12/29 20:42:52;;;;;;;18.38;8.75;;;8.90;99.90;;;;;;5039087;28;20051;-56
2023/12/29 20:45:17;;;;;;;16.90;7.57;;;8.90;99.90;;;;;;5039119;28;20160;-55
2023/12/29 20:47:43;;;;;;;19.30;9.00;;;8.90;99.90;;;;;;5040299;28;20464;-57
2023/12/29 20:50:09;;;;;;;18.83;8.23;;;9.00;99.90;;;;;;5039888;28;20121;-56
2023/12/29 20:52:34;;;;;;;22.88;9.55;;;9.00;99.90;;;;;;5037898;28;20017;-53
2023/12/29 20:55:00;;;;;;;19.65;7.82;;;9.00;99.90;;;;;;5039499;28;20052;-55
2023/12/29 20:57:26;;;;;;;20.00;8.38;;;9.00;99.90;;;;;;5029731;28;20516;-55
2023/12/29 20:59:52;;;;;;;20.23;8.40;;;9.00;99.90;;;;;;5029603;28;20087;-53
2023/12/29 21:02:18;;;;;;;14.65;7.18;;;8.90;99.90;;;;;;5029776;28;20182;-55
2023/12/29 21:04:43;;;;;;;14.52;7.72;;;8.90;99.90;;;;;;5029284;28;20029;-54
2023/12/29 21:07:09;;;;;;;20.35;8.07;;;8.90;99.90;;;;;;5029445;28;20032;-54
2023/12/29 21:09:35;;;;;;;18.75;8.57;;;8.90;99.90;;;;;;5036934;28;20083;-56
2023/12/29 21:12:00;;;;;;;18.50;8.02;;;8.90;99.90;;;;;;5038220;28;20040;-53
2023/12/29 21:14:26;;;;;;;19.25;7.35;;;8.90;99.90;;;;;;5037913;28;20021;-53
2023/12/29 21:16:52;;;;;;;17.65;7.45;;;8.90;99.90;;;;;;5037193;28;20037;-55
2023/12/29 21:19:18;;;;;;;18.30;7.88;;;8.90;99.90;;;;;;5037073;28;20146;-55
2023/12/29 21:21:46;;;;;;;14.57;7.32;;;8.90;99.90;;;;;;5037412;28;20060;-53
2023/12/29 21:24:12;;;;;;;15.65;7.20;;;8.90;99.90;;;;;;5037621;28;20057;-53
2023/12/29 21:26:40;;;;;;;15.20;7.28;;;9.00;99.90;;;;;;5037015;28;20033;-56
2023/12/29 21:29:05;;;;;;;15.68;6.88;;;8.90;99.90;;;;;;5033858;28;20529;-52
2023/12/29 21:31:31;;;;;;;17.52;7.22;;;8.90;99.90;;;;;;5030265;28;20029;-54
2023/12/29 21:33:58;;;;;;;15.68;7.28;;;8.90;99.90;;;;;;5030469;28;20032;-53
2023/12/29 21:36:25;;;;;;;20.98;7.40;;;9.00;99.90;;;;;;5029122;28;20489;-57
2023/12/29 21:38:52;;;;;;;16.27;7.25;;;9.00;99.90;;;;;;5037543;28;20037;-55
2023/12/29 21:41:18;;;;;;;16.92;7.78;;;9.00;99.90;;;;;;5038286;28;20026;-56
2023/12/29 21:43:44;;;;;;;18.98;9.07;;;9.10;99.90;;;;;;5036728;28;20099;-53
2023/12/29 21:46:11;;;;;;;21.57;8.47;;;9.00;99.90;;;;;;5037698;28;20099;-52
2023/12/29 21:48:37;;;;;;;19.88;8.88;;;8.90;99.90;;;;;;5037967;28;20045;-55
2023/12/29 21:51:03;;;;;;;19.95;8.68;;;9.00;99.90;;;;;;5029995;28;20076;-54
2023/12/29 21:53:29;;;;;;;16.13;8.98;;;8.90;99.90;;;;;;5025306;28;20029;-55
2023/12/29 21:55:56;;;;;;;16.05;9.48;;;8.90;99.90;;;;;;5015427;28;20060;-58
2023/12/29 21:58:23;;;;;;;20.10;10.45;;;8.90;99.90;;;;;;5015905;28;20037;-55
2023/12/29 22:00:48;;;;;;;16.40;7.80;;;8.80;99.90;;;;;;5010841;28;20062;-53
2023/12/29 22:03:15;;;;;;;16.85;8.15;;;8.80;99.90;;;;;;5036216;28;20552;-56
2023/12/29 22:05:40;;;;;;;17.65;7.47;;;8.80;99.90;;;;;;5027912;28;20484;-53
2023/12/29 22:08:06;;;;;;;15.63;8.00;;;8.70;99.90;;;;;;5030976;28;20079;-54
2023/12/29 22:10:32;;;;;;;15.38;7.53;;;8.70;99.90;;;;;;5046015;28;20082;-56
2023/12/29 22:12:57;;;;;;;15.18;7.40;;;8.80;99.90;;;;;;5019097;28;20081;-54
2023/12/29 22:15:23;;;;;;;13.52;6.38;;;8.70;99.90;;;;;;5007495;28;20072;-53
2023/12/29 22:17:49;;;;;;;15.98;7.28;;;8.70;99.90;;;;;;5007262;28;20030;-55
2023/12/29 22:20:15;;;;;;;14.05;6.60;;;8.70;99.90;;;;;;5026367;28;20132;-56
2023/12/29 22:22:41;;;;;;;14.90;6.85;;;8.60;99.90;;;;;;5027179;28;20532;-54
2023/12/29 22:25:07;;;;;;;15.60;7.22;;;8.60;99.90;;;;;;5026614;28;20051;-56
2023/12/29 22:27:33;;;;;;;13.23;6.60;;;8.70;99.90;;;;;;5026904;28;20034;-55
2023/12/29 22:29:58;;;;;;;13.45;6.82;;;8.70;99.90;;;;;;5026747;28;20079;-56
2023/12/29 22:32:24;;;;;;;19.08;8.50;;;8.70;99.90;;;;;;5026193;28;20102;-56
2023/12/29 22:34:50;;;;;;;19.08;7.95;;;8.70;99.90;;;;;;5026287;28;20048;-58
2023/12/29 22:37:15;;;;;;;21.63;9.25;;;8.70;99.90;;;;;;5026840;28;20036;-57
2023/12/29 22:39:41;;;;;;;16.40;7.03;;;8.70;99.90;;;;;;5026532;28;20029;-55
2023/12/29 22:42:07;;;;;;;17.02;7.60;;;8.70;99.90;;;;;;5028954;28;20061;-54
2023/12/29 22:44:32;;;;;;;18.85;7.43;;;8.70;99.90;;;;;;5034722;28;20041;-58
2023/12/29 22:46:58;;;;;;;14.40;6.40;;;8.90;99.90;;;;;;5036155;28;20030;-58
2023/12/29 22:49:24;;;;;;;15.40;7.15;;;8.80;99.90;;;;;;5033299;28;20025;-58
2023/12/29 22:51:49;;;;;;;18.85;7.65;;;8.80;99.90;;;;;;5040440;28;20767;-56
2023/12/29 22:54:15;;;;;;;17.52;7.15;;;8.70;99.90;;;;;;5035338;28;20716;-57
2023/12/29 22:56:41;;;;;;;18.63;8.30;;;8.80;99.90;;;;;;5033923;28;20060;-56
2023/12/29 22:59:06;;;;;;;19.73;8.25;;;8.80;99.90;;;;;;5034716;28;20052;-54
2023/12/29 23:01:32;;;;;;;17.17;7.05;;;8.80;99.90;;;;;;5035841;28;20140;-56
2023/12/29 23:03:58;;;;;;;18.15;8.40;;;8.90;99.90;;;;;;5034385;28;20038;-54
2023/12/29 23:06:24;;;;;;;17.20;7.70;;;8.80;99.90;;;;;;5035230;28;20109;-57
2023/12/29 23:08:49;;;;;;;19.60;8.68;;;8.80;99.90;;;;;;5036875;28;20029;-59
2023/12/29 23:11:15;;;;;;;17.58;7.97;;;8.80;99.90;;;;;;5032661;28;20047;-55
2023/12/29 23:13:41;;;;;;;17.83;7.97;;;8.80;99.90;;;;;;5034015;28;20056;-56
2023/12/29 23:16:08;;;;;;;17.67;7.35;;;8.70;99.90;;;;;;5034303;28;20188;-57
2023/12/29 23:18:34;;;;;;;16.35;7.78;;;8.70;99.90;;;;;;5034143;28;20037;-56
2023/12/29 23:20:59;;;;;;;14.70;7.28;;;8.80;99.90;;;;;;5033776;28;20029;-55
2023/12/29 23:23:25;;;;;;;17.83;6.97;;;8.80;99.90;;;;;;5033840;28;20490;-57
2023/12/29 23:25:51;;;;;;;16.70;7.38;;;8.70;99.90;;;;;;5036230;28;20051;-54
2023/12/29 23:28:16;;;;;;;15.40;7.05;;;8.70;99.90;;;;;;5034501;28;20029;-56
2023/12/29 23:30:42;;;;;;;17.70;6.97;;;8.70;99.90;;;;;;5035352;28;20025;-55
2023/12/29 23:33:07;;;;;;;15.70;6.60;;;8.70;99.90;;;;;;5036563;28;20083;-59
2023/12/29 23:35:33;;;;;;;18.75;7.20;;;8.70;99.90;;;;;;5034380;28;20121;-56
2023/12/29 23:37:59;;;;;;;17.63;9.18;;;8.70;99.90;;;;;;5036221;28;20021;-57
2023/12/29 23:40:24;;;;;;;16.85;8.50;;;8.70;99.90;;;;;;5036008;28;20069;-55
2023/12/29 23:42:50;;;;;;;14.35;6.03;;;8.70;99.90;;;;;;5030514;28;20438;-54
2023/12/29 23:45:15;;;;;;;13.30;5.43;;;8.70;99.90;;;;;;5028322;28;20095;-55
2023/12/29 23:47:41;;;;;;;11.95;5.57;;;8.70;99.90;;;;;;5033996;28;20029;-53
2023/12/29 23:50:08;;;;;;;14.18;5.55;;;8.70;99.90;;;;;;5039658;28;20036;-57
2023/12/29 23:52:34;;;;;;;11.40;4.75;;;8.70;99.90;;;;;;5036814;28;20069;-56
2023/12/29 23:54:59;;;;;;;14.00;5.85;;;8.70;99.90;;;;;;5038231;28;20063;-57
2023/12/29 23:57:25;;;;;;;12.63;5.40;;;8.70;99.90;;;;;;5037906;28;20033;-55
2023/12/29 23:59:51;;;;;;;11.07;5.07;;;8.70;99.90;;;;;;5044548;28;20029;-54
